createdAt,value
2022-12-17T00:01:04.155Z,35.67
2022-12-17T00:03:49.575Z,34.03
2022-12-17T00:06:36.003Z,36.17
2022-12-17T00:09:21.391Z,37.10
2022-12-17T00:12:07.368Z,36.97
2022-12-17T00:14:53.002Z,35.70
2022-12-17T00:17:46.210Z,36.83
2022-12-17T00:20:31.640Z,37.20
2022-12-17T00:23:18.512Z,39.08
2022-12-17T00:26:09.037Z,37.15
2022-12-17T00:31:47.779Z,35.03
2022-12-17T00:34:34.853Z,38.70
2022-12-17T00:37:20.870Z,35.63
2022-12-17T00:40:06.738Z,37.83
2022-12-17T00:42:52.548Z,38.47
2022-12-17T00:45:42.114Z,36.63
2022-12-17T00:48:27.702Z,38.45
2022-12-17T00:51:15.284Z,38.13
2022-12-17T00:54:01.207Z,41.13
2022-12-17T00:56:47.201Z,37.38
2022-12-17T00:59:32.884Z,38.08
2022-12-17T01:02:18.992Z,35.80
2022-12-17T01:05:04.681Z,34.25
2022-12-17T01:07:52.710Z,35.50
2022-12-17T01:10:39.708Z,35.05
2022-12-17T01:13:25.481Z,34.20
2022-12-17T01:16:16.506Z,34.95
2022-12-17T01:19:02.566Z,33.60
2022-12-17T01:21:48.195Z,36.15
2022-12-17T01:24:35.647Z,34.03
2022-12-17T01:27:21.420Z,33.20
2022-12-17T01:30:21.804Z,33.25
2022-12-17T01:33:07.718Z,33.58
2022-12-17T01:35:53.625Z,34.60
2022-12-17T01:38:40.633Z,33.40
2022-12-17T01:41:28.144Z,32.70
2022-12-17T01:44:13.643Z,34.65
2022-12-17T01:47:04.449Z,35.28
2022-12-17T01:49:49.911Z,34.03
2022-12-17T01:52:36.148Z,35.60
2022-12-17T01:55:23.446Z,34.55
2022-12-17T01:58:10.874Z,35.00
2022-12-17T02:00:56.685Z,34.03
2022-12-17T02:03:42.979Z,35.45
2022-12-17T02:06:31.817Z,33.63
2022-12-17T02:09:24.259Z,34.05
2022-12-17T02:12:14.567Z,34.63
2022-12-17T02:15:03.909Z,34.70
2022-12-17T02:17:54.775Z,34.13
2022-12-17T02:20:45.904Z,34.13
2022-12-17T02:23:40.585Z,36.65
2022-12-17T02:26:30.790Z,35.72
2022-12-17T02:29:19.063Z,34.30
2022-12-17T02:32:05.650Z,36.25
2022-12-17T02:35:02.430Z,35.38
2022-12-17T02:37:48.169Z,33.83
2022-12-17T02:40:34.237Z,35.78
2022-12-17T02:43:20.501Z,33.95
2022-12-17T02:46:08.256Z,35.90
2022-12-17T02:48:53.892Z,33.63
2022-12-17T02:51:39.969Z,33.78
2022-12-17T02:54:27.137Z,37.75
2022-12-17T02:57:12.995Z,35.92
2022-12-17T02:59:58.854Z,33.75
2022-12-17T03:02:45.755Z,35.80
2022-12-17T03:05:45.382Z,34.90
2022-12-17T03:08:43.584Z,36.72
2022-12-17T03:11:29.719Z,37.97
2022-12-17T03:14:15.518Z,34.80
2022-12-17T03:17:01.538Z,34.70
2022-12-17T03:19:48.216Z,35.58
2022-12-17T03:22:34.303Z,32.33
2022-12-17T03:25:19.925Z,33.65
2022-12-17T03:28:06.225Z,33.25
2022-12-17T03:30:51.747Z,32.67
2022-12-17T03:33:38.607Z,34.17
2022-12-17T03:36:26.148Z,33.90
2022-12-17T03:39:14.497Z,33.97
2022-12-17T03:42:00.239Z,32.15
2022-12-17T03:44:45.988Z,31.50
2022-12-17T03:47:31.503Z,32.88
2022-12-17T03:50:17.524Z,32.85
2022-12-17T03:53:04.413Z,34.03
2022-12-17T03:55:50.202Z,34.00
2022-12-17T03:58:35.583Z,33.10
2022-12-17T04:01:21.419Z,32.83
2022-12-17T04:04:07.669Z,33.92
2022-12-17T04:06:54.040Z,32.25
2022-12-17T04:09:40.784Z,34.55
2022-12-17T04:12:25.805Z,33.03
2022-12-17T04:15:11.754Z,34.25
2022-12-17T04:17:58.025Z,34.15
2022-12-17T04:20:43.734Z,36.05
2022-12-17T04:23:29.338Z,34.28
2022-12-17T04:26:16.822Z,32.90
2022-12-17T04:29:02.638Z,33.60
2022-12-17T04:31:48.063Z,33.28
2022-12-17T04:34:36.158Z,32.60
2022-12-17T04:37:22.141Z,33.60
2022-12-17T04:40:19.483Z,33.47
2022-12-17T04:43:06.786Z,32.50
2022-12-17T04:45:52.424Z,30.98
2022-12-17T04:48:38.147Z,31.83
2022-12-17T04:51:24.327Z,34.25
2022-12-17T04:54:09.867Z,32.38
2022-12-17T04:56:55.897Z,33.22
2022-12-17T04:59:43.181Z,35.47
2022-12-17T05:02:29.254Z,36.00
2022-12-17T05:05:15.367Z,33.45
2022-12-17T05:08:01.685Z,33.88
2022-12-17T05:10:47.481Z,34.70
2022-12-17T05:13:34.091Z,31.77
2022-12-17T05:16:21.420Z,30.77
2022-12-17T05:19:07.376Z,34.42
2022-12-17T05:21:53.364Z,31.40
2022-12-17T05:24:39.562Z,32.30
2022-12-17T05:27:25.044Z,32.70
2022-12-17T05:30:11.464Z,32.53
2022-12-17T05:32:58.504Z,31.83
2022-12-17T05:35:44.458Z,32.10
2022-12-17T05:38:29.750Z,32.85
2022-12-17T05:41:17.020Z,34.47
2022-12-17T05:44:03.297Z,35.08
2022-12-17T05:46:49.376Z,35.00
2022-12-17T05:49:36.402Z,34.38
2022-12-17T05:52:22.623Z,33.53
2022-12-17T05:55:08.087Z,36.22
2022-12-17T05:57:56.557Z,34.53
2022-12-17T06:00:42.763Z,36.83
2022-12-17T06:03:29.067Z,36.13
2022-12-17T06:06:16.239Z,38.92
2022-12-17T06:09:02.438Z,36.45
2022-12-17T06:11:48.131Z,39.10
2022-12-17T06:14:34.036Z,38.08
2022-12-17T06:17:19.471Z,41.70
2022-12-17T06:20:05.418Z,41.10
2022-12-17T06:22:52.441Z,42.65
2022-12-17T06:25:38.842Z,42.15
2022-12-17T06:28:24.801Z,43.35
2022-12-17T06:31:16.786Z,45.90
2022-12-17T06:34:02.553Z,44.90
2022-12-17T06:36:48.380Z,46.72
2022-12-17T06:39:35.742Z,49.92
2022-12-17T06:42:21.700Z,44.78
2022-12-17T06:45:07.309Z,44.97
2022-12-17T06:47:53.019Z,43.58
2022-12-17T06:50:38.477Z,43.85
2022-12-17T06:53:25.656Z,43.45
2022-12-17T06:56:15.993Z,44.25
2022-12-17T06:59:02.392Z,42.00
2022-12-17T07:01:48.659Z,42.45
2022-12-17T07:04:34.732Z,43.55
2022-12-17T07:07:20.393Z,45.08
2022-12-17T07:10:12.166Z,43.70
2022-12-17T07:13:01.572Z,43.40
2022-12-17T07:15:47.287Z,43.22
2022-12-17T07:18:32.980Z,44.05
2022-12-17T07:21:18.467Z,41.67
2022-12-17T07:24:04.275Z,44.45
2022-12-17T07:26:50.026Z,41.47
2022-12-17T07:29:37.131Z,43.67
2022-12-17T07:32:23.788Z,45.55
2022-12-17T07:35:09.171Z,44.72
2022-12-17T07:37:54.987Z,46.78
2022-12-17T07:40:40.426Z,46.28
2022-12-17T07:43:29.137Z,45.15
2022-12-17T07:46:15.845Z,45.63
2022-12-17T07:49:02.253Z,48.53
2022-12-17T07:51:47.528Z,49.03
2022-12-17T07:54:33.564Z,47.90
2022-12-17T07:57:19.178Z,48.63
2022-12-17T08:00:04.925Z,47.15
2022-12-17T08:02:51.979Z,47.08
2022-12-17T08:05:38.435Z,46.90
2022-12-17T08:08:27.055Z,49.65
2022-12-17T08:11:12.885Z,54.85
2022-12-17T08:13:58.951Z,55.53
2022-12-17T08:16:45.040Z,58.63
2022-12-17T08:19:32.458Z,52.03
2022-12-17T08:22:18.643Z,52.65
2022-12-17T08:25:04.329Z,57.72
2022-12-17T08:27:50.111Z,52.08
2022-12-17T08:30:44.615Z,52.45
2022-12-17T08:33:30.602Z,51.75
2022-12-17T08:36:17.574Z,55.10
2022-12-17T08:39:04.150Z,53.05
2022-12-17T08:41:54.193Z,50.53
2022-12-17T08:47:26.323Z,57.67
2022-12-17T08:50:12.083Z,61.85
2022-12-17T08:52:59.284Z,57.10
2022-12-17T08:55:45.116Z,56.78
2022-12-17T08:58:30.851Z,55.25
2022-12-17T09:01:17.426Z,48.95
2022-12-17T09:04:04.323Z,46.90
2022-12-17T09:06:50.519Z,49.38
2022-12-17T09:09:37.547Z,54.83
2022-12-17T09:12:23.912Z,47.72
2022-12-17T09:15:09.797Z,48.83
2022-12-17T09:17:55.494Z,47.13
2022-12-17T09:20:41.222Z,48.47
2022-12-17T09:23:27.036Z,53.08
2022-12-17T09:26:16.208Z,50.10
2022-12-17T09:29:02.022Z,49.30
2022-12-17T09:31:49.034Z,47.33
2022-12-17T09:34:35.401Z,46.72
2022-12-17T09:37:21.392Z,48.90
2022-12-17T09:40:09.229Z,49.50
2022-12-17T09:43:01.421Z,53.78
2022-12-17T09:45:51.824Z,50.78
2022-12-17T09:48:41.853Z,57.30
2022-12-17T09:51:40.177Z,49.67
2022-12-17T09:54:32.426Z,56.70
2022-12-17T09:57:18.424Z,56.78
2022-12-17T10:00:19.898Z,57.22
2022-12-17T10:03:06.377Z,81.47
2022-12-17T10:05:51.870Z,57.45
2022-12-17T10:08:40.310Z,50.80
2022-12-17T10:11:36.811Z,49.97
2022-12-17T10:14:23.687Z,52.58
2022-12-17T10:17:12.227Z,49.33
2022-12-17T10:20:00.012Z,48.20
2022-12-17T10:22:45.822Z,54.83
2022-12-17T10:25:35.301Z,54.00
2022-12-17T10:28:22.039Z,54.08
2022-12-17T10:31:07.923Z,55.42
2022-12-17T10:33:57.775Z,54.28
2022-12-17T10:36:45.224Z,52.17
2022-12-17T10:39:35.241Z,52.65
2022-12-17T10:42:21.664Z,55.70
2022-12-17T10:45:07.201Z,59.05
2022-12-17T10:47:53.253Z,52.28
2022-12-17T10:50:41.971Z,49.58
2022-12-17T10:53:36.540Z,47.20
2022-12-17T10:56:22.807Z,48.38
2022-12-17T10:59:11.169Z,49.38
2022-12-17T11:01:58.520Z,50.20
2022-12-17T11:04:46.088Z,50.75
2022-12-17T11:07:34.991Z,50.35
2022-12-17T11:10:24.292Z,53.03
2022-12-17T11:13:13.578Z,54.80
2022-12-17T11:16:02.638Z,56.90
2022-12-17T11:19:06.813Z,55.70
2022-12-17T11:21:55.503Z,55.45
2022-12-17T11:24:45.264Z,62.40
2022-12-17T11:27:35.379Z,53.45
2022-12-17T11:30:25.032Z,50.85
2022-12-17T11:33:20.627Z,55.63
2022-12-17T11:36:10.728Z,47.97
2022-12-17T11:38:58.259Z,44.50
2022-12-17T11:41:52.136Z,48.22
2022-12-17T11:44:45.533Z,44.65
2022-12-17T11:47:38.661Z,44.35
2022-12-17T11:50:33.779Z,43.95
2022-12-17T11:53:27.882Z,44.45
2022-12-17T11:56:20.205Z,45.83
2022-12-17T12:01:58.894Z,53.03
2022-12-17T12:04:55.742Z,51.30
2022-12-17T12:07:49.720Z,51.47
2022-12-17T12:10:47.131Z,50.88
2022-12-17T12:13:38.790Z,52.90
2022-12-17T12:16:30.168Z,55.25
2022-12-17T12:22:10.362Z,51.92
2022-12-17T12:25:24.859Z,54.60
2022-12-17T12:28:17.053Z,58.33
2022-12-17T12:31:08.202Z,68.28
2022-12-17T12:34:09.852Z,64.53
2022-12-17T12:36:56.771Z,55.97
2022-12-17T12:39:58.400Z,56.83
2022-12-17T12:42:49.623Z,54.65
2022-12-17T12:45:48.574Z,57.00
2022-12-17T12:48:46.840Z,62.58
2022-12-17T12:51:37.448Z,59.47
2022-12-17T12:54:42.070Z,68.32
2022-12-17T12:58:14.555Z,63.05
2022-12-17T13:01:11.747Z,61.80
2022-12-17T13:04:14.277Z,60.90
2022-12-17T13:06:46.997Z,61.50
2022-12-17T13:09:39.757Z,63.03
2022-12-17T13:12:25.037Z,67.63
2022-12-17T13:14:57.738Z,70.60
2022-12-17T13:17:33.329Z,66.25
2022-12-17T13:20:05.017Z,62.45
2022-12-17T13:22:34.986Z,60.17
2022-12-17T13:25:18.114Z,60.10
2022-12-17T13:27:47.159Z,60.58
2022-12-17T13:30:36.298Z,60.83
2022-12-17T13:33:19.652Z,64.10
2022-12-17T13:35:54.328Z,64.82
2022-12-17T13:38:27.155Z,61.63
2022-12-17T13:41:09.797Z,59.92
2022-12-17T13:43:41.635Z,63.22
2022-12-17T13:46:19.040Z,63.03
2022-12-17T13:48:54.476Z,61.47
2022-12-17T13:51:23.785Z,57.47
2022-12-17T13:53:58.420Z,58.20
2022-12-17T13:56:29.084Z,58.55
2022-12-17T13:59:02.034Z,63.97
2022-12-17T14:01:34.567Z,60.17
2022-12-17T14:04:06.606Z,58.60
2022-12-17T14:06:36.845Z,55.78
2022-12-17T14:09:06.998Z,51.10
2022-12-17T14:11:52.638Z,53.50
2022-12-17T14:14:30.417Z,59.63
2022-12-17T14:16:58.991Z,56.22
2022-12-17T14:19:27.944Z,56.28
2022-12-17T14:21:56.627Z,60.03
2022-12-17T14:24:29.537Z,61.65
2022-12-17T14:26:59.370Z,59.00
2022-12-17T14:29:29.991Z,53.13
2022-12-17T14:32:00.300Z,51.80
2022-12-17T14:34:30.039Z,51.45
2022-12-17T14:36:59.815Z,54.53
2022-12-17T14:39:31.181Z,52.35
2022-12-17T14:42:18.366Z,48.05
2022-12-17T14:44:52.586Z,49.50
2022-12-17T14:47:23.176Z,49.13
2022-12-17T14:49:59.383Z,52.25
2022-12-17T14:52:33.773Z,48.28
2022-12-17T14:55:19.278Z,49.08
2022-12-17T14:57:47.467Z,49.35
2022-12-17T15:00:16.587Z,50.10
2022-12-17T15:02:46.098Z,50.75
2022-12-17T15:05:16.185Z,46.70
2022-12-17T15:07:44.543Z,50.70
2022-12-17T15:10:17.605Z,49.75
2022-12-17T15:12:46.156Z,50.17
2022-12-17T15:15:15.299Z,51.17
2022-12-17T15:17:43.847Z,49.97
2022-12-17T15:20:18.208Z,52.65
2022-12-17T15:22:46.629Z,48.35
2022-12-17T15:25:19.624Z,48.20
2022-12-17T15:27:48.365Z,46.40
2022-12-17T15:30:17.919Z,48.85
2022-12-17T15:32:46.671Z,47.83
2022-12-17T15:35:15.283Z,47.90
2022-12-17T15:37:43.540Z,49.88
2022-12-17T15:40:12.891Z,50.28
2022-12-17T15:43:04.705Z,49.17
2022-12-17T15:45:34.964Z,53.08
2022-12-17T15:48:03.438Z,50.25
2022-12-17T15:50:32.092Z,54.10
2022-12-17T15:53:00.647Z,49.42
2022-12-17T15:55:29.546Z,49.13
2022-12-17T15:57:59.667Z,44.33
2022-12-17T16:00:28.173Z,47.97
2022-12-17T16:02:56.686Z,48.72
2022-12-17T16:05:25.763Z,48.15
2022-12-17T16:07:54.156Z,46.42
2022-12-17T16:10:22.710Z,45.03
2022-12-17T16:12:51.024Z,44.83
2022-12-17T16:15:21.035Z,43.88
2022-12-17T16:17:49.353Z,43.92
2022-12-17T16:20:18.208Z,43.15
2022-12-17T16:22:46.503Z,43.92
2022-12-17T16:25:15.099Z,47.17
2022-12-17T16:27:44.109Z,43.55
2022-12-17T16:30:14.848Z,43.35
2022-12-17T16:32:45.519Z,43.03
2022-12-17T16:35:14.525Z,43.33
2022-12-17T16:37:42.871Z,42.45
2022-12-17T16:40:12.590Z,43.58
2022-12-17T16:42:40.742Z,45.88
2022-12-17T16:45:10.032Z,41.88
2022-12-17T16:47:38.436Z,43.33
2022-12-17T16:50:08.864Z,44.15
2022-12-17T16:52:37.170Z,46.95
2022-12-17T16:55:06.181Z,41.53
2022-12-17T16:57:34.518Z,43.22
2022-12-17T17:00:04.526Z,41.83
2022-12-17T17:02:32.918Z,38.72
2022-12-17T17:05:01.666Z,41.45
2022-12-17T17:07:31.373Z,42.10
2022-12-17T17:09:59.834Z,40.35
2022-12-17T17:12:28.193Z,48.83
2022-12-17T17:14:56.677Z,48.40
2022-12-17T17:17:54.551Z,43.95
2022-12-17T17:20:14.576Z,46.17
2022-12-17T17:22:44.418Z,44.70
2022-12-17T17:25:13.121Z,44.97
2022-12-17T17:27:41.612Z,45.15
2022-12-17T17:30:11.600Z,45.92
2022-12-17T17:32:39.910Z,43.50
2022-12-17T17:35:09.100Z,46.05
2022-12-17T17:37:37.350Z,43.28
2022-12-17T17:40:09.021Z,40.90
2022-12-17T17:42:37.358Z,43.75
2022-12-17T17:45:07.142Z,46.92
2022-12-17T17:47:35.494Z,44.85
2022-12-17T17:50:04.012Z,42.58
2022-12-17T17:52:32.297Z,46.15
2022-12-17T17:55:00.701Z,43.33
2022-12-17T17:57:30.368Z,42.67
2022-12-17T17:59:58.918Z,40.95
2022-12-17T18:02:27.310Z,40.92
2022-12-17T18:04:56.051Z,42.42
2022-12-17T18:07:25.960Z,39.95
2022-12-17T18:09:55.603Z,39.88
2022-12-17T18:12:41.413Z,39.30
2022-12-17T18:15:14.736Z,41.03
2022-12-17T18:17:43.699Z,43.28
2022-12-17T18:20:12.812Z,43.63
2022-12-17T18:22:41.062Z,44.45
2022-12-17T18:25:10.640Z,42.30
2022-12-17T18:27:39.046Z,43.67
2022-12-17T18:30:08.727Z,43.72
2022-12-17T18:32:38.533Z,46.63
2022-12-17T18:35:08.388Z,45.58
2022-12-17T18:37:36.763Z,39.25
2022-12-17T18:40:06.268Z,39.35
2022-12-17T18:42:52.188Z,37.08
2022-12-17T18:45:20.835Z,35.30
2022-12-17T18:47:52.148Z,34.35
2022-12-17T18:50:20.788Z,42.95
2022-12-17T18:52:49.115Z,41.70
2022-12-17T18:55:17.730Z,30.45
2022-12-17T18:57:45.914Z,29.75
2022-12-17T19:00:16.034Z,31.45
2022-12-17T19:02:44.418Z,28.83
2022-12-17T19:05:14.736Z,34.03
2022-12-17T19:07:43.081Z,30.70
2022-12-17T19:10:11.831Z,31.30
2022-12-17T19:12:40.041Z,32.03
2022-12-17T19:15:09.780Z,38.35
2022-12-17T19:17:37.962Z,34.95
2022-12-17T19:20:07.447Z,34.65
2022-12-17T19:22:37.164Z,37.63
2022-12-17T19:25:06.397Z,36.20
2022-12-17T19:27:34.703Z,36.05
2022-12-17T19:30:03.233Z,33.25
2022-12-17T19:32:31.717Z,32.15
2022-12-17T19:35:00.265Z,31.95
2022-12-17T19:37:28.607Z,31.15
2022-12-17T19:39:58.523Z,32.72
2022-12-17T19:42:34.975Z,34.60
2022-12-17T19:45:06.106Z,32.40
2022-12-17T19:47:34.557Z,36.97
2022-12-17T19:50:03.004Z,34.45
2022-12-17T19:52:31.331Z,36.10
2022-12-17T19:55:02.041Z,33.65
2022-12-17T19:57:30.360Z,34.80
2022-12-17T19:59:58.945Z,31.67
2022-12-17T20:05:01.958Z,33.60
2022-12-17T20:07:30.363Z,32.53
2022-12-17T20:09:58.995Z,33.42
2022-12-17T20:12:28.616Z,30.65
2022-12-17T20:14:57.241Z,36.47
2022-12-17T20:17:26.286Z,34.88
2022-12-17T20:19:57.889Z,32.03
2022-12-17T20:22:26.775Z,32.05
2022-12-17T20:24:56.053Z,33.03
2022-12-17T20:27:24.968Z,34.05
2022-12-17T20:29:56.021Z,32.47
2022-12-17T20:32:27.650Z,31.30
2022-12-17T20:34:56.063Z,32.28
2022-12-17T20:37:24.309Z,39.03
2022-12-17T20:39:52.743Z,32.05
2022-12-17T20:42:21.100Z,35.72
2022-12-17T20:44:53.377Z,32.72
2022-12-17T20:47:23.469Z,32.88
2022-12-17T20:49:51.917Z,36.08
2022-12-17T20:52:20.270Z,32.83
2022-12-17T20:54:49.424Z,33.63
2022-12-17T20:57:17.817Z,33.75
2022-12-17T20:59:46.345Z,31.90
2022-12-17T21:02:14.613Z,30.38
2022-12-17T21:04:45.051Z,32.45
2022-12-17T21:07:13.400Z,34.08
2022-12-17T21:09:42.138Z,34.45
2022-12-17T21:12:12.443Z,35.08
2022-12-17T21:14:41.013Z,36.97
2022-12-17T21:17:09.341Z,40.40
2022-12-17T21:19:38.153Z,33.00
2022-12-17T21:22:08.366Z,31.50
2022-12-17T21:24:38.950Z,31.60
2022-12-17T21:27:12.744Z,35.05
2022-12-17T21:29:43.101Z,34.33
2022-12-17T21:32:11.261Z,33.60
2022-12-17T21:34:40.057Z,33.00
2022-12-17T21:37:11.282Z,31.77
2022-12-17T21:39:39.905Z,33.10
2022-12-17T21:42:25.870Z,32.80
2022-12-17T21:44:54.411Z,32.47
2022-12-17T21:47:22.755Z,32.53
2022-12-17T21:49:51.330Z,32.78
2022-12-17T21:52:20.939Z,32.45
2022-12-17T21:54:49.504Z,34.05
2022-12-17T21:57:17.687Z,32.58
2022-12-17T21:59:46.266Z,27.50
2022-12-17T22:02:14.580Z,31.77
2022-12-17T22:04:43.342Z,29.98
2022-12-17T22:07:18.656Z,29.85
2022-12-17T22:10:18.271Z,29.33
2022-12-17T22:13:00.855Z,30.08
2022-12-17T22:15:33.574Z,28.88
2022-12-17T22:18:10.868Z,28.05
2022-12-17T22:20:39.312Z,30.83
2022-12-17T22:23:07.414Z,28.88
2022-12-17T22:25:39.245Z,31.83
2022-12-17T22:30:53.338Z,30.35
2022-12-17T22:33:52.180Z,29.40
2022-12-17T22:38:57.696Z,28.75
2022-12-17T22:41:25.895Z,24.60
2022-12-17T22:44:41.005Z,28.77
2022-12-17T22:45:06.174Z,28.27
2022-12-17T22:47:37.580Z,27.17
2022-12-17T22:50:06.656Z,28.67
2022-12-17T22:52:35.637Z,26.17
2022-12-17T22:55:04.530Z,29.33
2022-12-17T22:57:38.261Z,25.63
2022-12-17T23:00:13.892Z,25.38
2022-12-17T23:02:42.345Z,26.30
2022-12-17T23:05:10.848Z,27.10
2022-12-17T23:07:39.326Z,26.50
2022-12-17T23:10:08.262Z,27.23
2022-12-17T23:12:54.363Z,25.45
2022-12-17T23:15:26.056Z,28.88
2022-12-17T23:17:56.889Z,31.42
2022-12-17T23:20:26.425Z,30.65
2022-12-17T23:22:54.844Z,31.73
2022-12-17T23:25:23.715Z,33.22
2022-12-17T23:27:53.758Z,34.38
2022-12-17T23:30:23.249Z,29.88
2022-12-17T23:32:52.100Z,30.20
2022-12-17T23:35:20.304Z,38.47
2022-12-17T23:37:49.555Z,34.03
2022-12-17T23:40:17.880Z,32.42
2022-12-17T23:42:46.292Z,27.75
2022-12-17T23:45:15.939Z,29.25
2022-12-17T23:47:44.509Z,29.38
2022-12-17T23:50:12.703Z,27.50
2022-12-17T23:52:41.288Z,31.27
2022-12-17T23:55:11.717Z,30.30
2022-12-17T23:57:40.501Z,29.45
